sensor_id;sensor_type;location;lat;lon;timestamp;P1;durP1;ratioP1;P2;durP2;ratioP2
23496;SDS011;11925;48.122;11.560;2023-03-03T00:01:33;40.40;;;19.67;;
23496;SDS011;11925;48.122;11.560;2023-03-03T00:04:02;39.85;;;21.05;;
23496;SDS011;11925;48.122;11.560;2023-03-03T00:06:30;41.10;;;21.02;;
23496;SDS011;11925;48.122;11.560;2023-03-03T00:09:00;37.42;;;19.77;;
23496;SDS011;11925;48.122;11.560;2023-03-03T00:11:28;36.90;;;20.17;;
23496;SDS011;11925;48.122;11.560;2023-03-03T00:13:56;37.95;;;19.48;;
23496;SDS011;11925;48.122;11.560;2023-03-03T00:16:26;39.70;;;19.92;;
23496;SDS011;11925;48.122;11.560;2023-03-03T00:18:55;37.53;;;19.40;;
23496;SDS011;11925;48.122;11.560;2023-03-03T00:21:26;40.55;;;20.42;;
23496;SDS011;11925;48.122;11.560;2023-03-03T00:24:20;40.05;;;20.75;;
23496;SDS011;11925;48.122;11.560;2023-03-03T00:26:50;38.38;;;19.45;;
23496;SDS011;11925;48.122;11.560;2023-03-03T00:32:23;37.78;;;19.88;;
23496;SDS011;11925;48.122;11.560;2023-03-03T00:34:53;39.92;;;19.65;;
23496;SDS011;11925;48.122;11.560;2023-03-03T00:37:32;38.13;;;19.55;;
23496;SDS011;11925;48.122;11.560;2023-03-03T00:40:12;38.95;;;19.50;;
23496;SDS011;11925;48.122;11.560;2023-03-03T00:42:49;38.20;;;19.17;;
23496;SDS011;11925;48.122;11.560;2023-03-03T00:45:26;38.03;;;20.13;;
23496;SDS011;11925;48.122;11.560;2023-03-03T00:47:57;36.55;;;19.88;;
23496;SDS011;11925;48.122;11.560;2023-03-03T00:50:27;38.60;;;19.85;;
23496;SDS011;11925;48.122;11.560;2023-03-03T00:52:59;40.95;;;20.90;;
23496;SDS011;11925;48.122;11.560;2023-03-03T00:55:31;37.88;;;19.13;;
23496;SDS011;11925;48.122;11.560;2023-03-03T00:58:00;38.97;;;20.30;;
23496;SDS011;11925;48.122;11.560;2023-03-03T01:00:33;36.67;;;20.08;;
23496;SDS011;11925;48.122;11.560;2023-03-03T01:03:05;38.00;;;19.83;;
23496;SDS011;11925;48.122;11.560;2023-03-03T01:05:35;35.70;;;19.52;;
23496;SDS011;11925;48.122;11.560;2023-03-03T01:08:03;34.03;;;18.08;;
23496;SDS011;11925;48.122;11.560;2023-03-03T01:10:34;35.85;;;18.58;;
23496;SDS011;11925;48.122;11.560;2023-03-03T01:13:05;37.35;;;19.05;;
23496;SDS011;11925;48.122;11.560;2023-03-03T01:15:35;37.63;;;19.15;;
23496;SDS011;11925;48.122;11.560;2023-03-03T01:18:04;36.08;;;18.52;;
23496;SDS011;11925;48.122;11.560;2023-03-03T01:20:33;36.42;;;19.10;;
23496;SDS011;11925;48.122;11.560;2023-03-03T01:23:01;36.30;;;18.15;;
23496;SDS011;11925;48.122;11.560;2023-03-03T01:25:29;38.35;;;18.55;;
23496;SDS011;11925;48.122;11.560;2023-03-03T01:27:59;35.05;;;18.75;;
23496;SDS011;11925;48.122;11.560;2023-03-03T01:30:27;35.13;;;18.33;;
23496;SDS011;11925;48.122;11.560;2023-03-03T01:32:56;37.03;;;19.60;;
23496;SDS011;11925;48.122;11.560;2023-03-03T01:35:24;34.33;;;18.40;;
23496;SDS011;11925;48.122;11.560;2023-03-03T01:37:52;35.17;;;18.27;;
23496;SDS011;11925;48.122;11.560;2023-03-03T01:40:22;37.65;;;18.70;;
23496;SDS011;11925;48.122;11.560;2023-03-03T01:42:51;32.50;;;18.52;;
23496;SDS011;11925;48.122;11.560;2023-03-03T01:45:22;36.63;;;18.20;;
23496;SDS011;11925;48.122;11.560;2023-03-03T01:47:53;38.00;;;18.55;;
23496;SDS011;11925;48.122;11.560;2023-03-03T01:50:30;36.05;;;18.65;;
23496;SDS011;11925;48.122;11.560;2023-03-03T01:53:05;37.47;;;18.13;;
23496;SDS011;11925;48.122;11.560;2023-03-03T01:55:40;35.47;;;18.92;;
23496;SDS011;11925;48.122;11.560;2023-03-03T01:58:11;33.17;;;17.38;;
23496;SDS011;11925;48.122;11.560;2023-03-03T02:00:47;38.28;;;19.25;;
23496;SDS011;11925;48.122;11.560;2023-03-03T02:03:18;35.13;;;18.83;;
23496;SDS011;11925;48.122;11.560;2023-03-03T02:05:49;33.63;;;17.52;;
23496;SDS011;11925;48.122;11.560;2023-03-03T02:08:20;35.17;;;17.77;;
23496;SDS011;11925;48.122;11.560;2023-03-03T02:10:55;35.53;;;17.40;;
23496;SDS011;11925;48.122;11.560;2023-03-03T02:13:24;36.80;;;18.17;;
23496;SDS011;11925;48.122;11.560;2023-03-03T02:15:55;34.35;;;17.52;;
23496;SDS011;11925;48.122;11.560;2023-03-03T02:18:24;37.20;;;18.90;;
23496;SDS011;11925;48.122;11.560;2023-03-03T02:20:56;35.22;;;18.42;;
23496;SDS011;11925;48.122;11.560;2023-03-03T02:23:29;37.97;;;18.67;;
23496;SDS011;11925;48.122;11.560;2023-03-03T02:26:04;35.80;;;19.27;;
23496;SDS011;11925;48.122;11.560;2023-03-03T02:28:35;36.80;;;18.08;;
23496;SDS011;11925;48.122;11.560;2023-03-03T02:31:07;33.65;;;17.80;;
23496;SDS011;11925;48.122;11.560;2023-03-03T02:33:39;34.83;;;17.75;;
23496;SDS011;11925;48.122;11.560;2023-03-03T02:36:10;36.45;;;19.92;;
23496;SDS011;11925;48.122;11.560;2023-03-03T02:41:14;37.33;;;18.33;;
23496;SDS011;11925;48.122;11.560;2023-03-03T02:43:50;39.72;;;19.77;;
23496;SDS011;11925;48.122;11.560;2023-03-03T02:46:23;35.15;;;18.25;;
23496;SDS011;11925;48.122;11.560;2023-03-03T02:48:51;34.03;;;18.05;;
23496;SDS011;11925;48.122;11.560;2023-03-03T02:51:20;34.78;;;18.25;;
23496;SDS011;11925;48.122;11.560;2023-03-03T02:53:48;38.22;;;18.38;;
23496;SDS011;11925;48.122;11.560;2023-03-03T02:56:18;37.90;;;18.55;;
23496;SDS011;11925;48.122;11.560;2023-03-03T02:58:46;34.63;;;18.80;;
23496;SDS011;11925;48.122;11.560;2023-03-03T03:01:15;37.22;;;19.13;;
23496;SDS011;11925;48.122;11.560;2023-03-03T03:03:44;36.17;;;18.63;;
23496;SDS011;11925;48.122;11.560;2023-03-03T03:06:16;38.90;;;19.23;;
23496;SDS011;11925;48.122;11.560;2023-03-03T03:08:46;37.70;;;18.58;;
23496;SDS011;11925;48.122;11.560;2023-03-03T03:11:14;37.33;;;19.20;;
23496;SDS011;11925;48.122;11.560;2023-03-03T03:13:44;37.42;;;19.45;;
23496;SDS011;11925;48.122;11.560;2023-03-03T03:16:12;33.92;;;18.17;;
23496;SDS011;11925;48.122;11.560;2023-03-03T03:18:41;35.38;;;18.67;;
23496;SDS011;11925;48.122;11.560;2023-03-03T03:21:11;37.63;;;19.05;;
23496;SDS011;11925;48.122;11.560;2023-03-03T03:23:41;37.95;;;18.55;;
23496;SDS011;11925;48.122;11.560;2023-03-03T03:26:10;36.25;;;18.85;;
23496;SDS011;11925;48.122;11.560;2023-03-03T03:28:39;36.08;;;19.35;;
23496;SDS011;11925;48.122;11.560;2023-03-03T03:31:09;38.45;;;18.75;;
23496;SDS011;11925;48.122;11.560;2023-03-03T03:33:37;34.97;;;18.25;;
23496;SDS011;11925;48.122;11.560;2023-03-03T03:36:06;37.25;;;18.90;;
23496;SDS011;11925;48.122;11.560;2023-03-03T03:38:35;35.22;;;17.50;;
23496;SDS011;11925;48.122;11.560;2023-03-03T03:41:07;34.97;;;18.45;;
23496;SDS011;11925;48.122;11.560;2023-03-03T03:43:35;34.03;;;18.52;;
23496;SDS011;11925;48.122;11.560;2023-03-03T03:46:04;36.13;;;18.52;;
23496;SDS011;11925;48.122;11.560;2023-03-03T03:48:34;36.83;;;17.90;;
23496;SDS011;11925;48.122;11.560;2023-03-03T03:53:33;33.67;;;17.77;;
23496;SDS011;11925;48.122;11.560;2023-03-03T03:56:01;35.45;;;18.92;;
23496;SDS011;11925;48.122;11.560;2023-03-03T03:58:30;34.38;;;18.08;;
23496;SDS011;11925;48.122;11.560;2023-03-03T04:01:03;35.97;;;18.52;;
23496;SDS011;11925;48.122;11.560;2023-03-03T04:03:39;33.88;;;18.52;;
23496;SDS011;11925;48.122;11.560;2023-03-03T04:06:11;33.42;;;17.80;;
23496;SDS011;11925;48.122;11.560;2023-03-03T04:08:40;32.40;;;17.52;;
23496;SDS011;11925;48.122;11.560;2023-03-03T04:11:09;32.55;;;17.92;;
23496;SDS011;11925;48.122;11.560;2023-03-03T04:13:38;32.13;;;16.92;;
23496;SDS011;11925;48.122;11.560;2023-03-03T04:16:08;36.47;;;17.77;;
23496;SDS011;11925;48.122;11.560;2023-03-03T04:18:40;34.97;;;17.95;;
23496;SDS011;11925;48.122;11.560;2023-03-03T04:21:12;31.67;;;16.98;;
23496;SDS011;11925;48.122;11.560;2023-03-03T04:26:12;31.92;;;16.88;;
23496;SDS011;11925;48.122;11.560;2023-03-03T04:28:42;33.83;;;18.17;;
23496;SDS011;11925;48.122;11.560;2023-03-03T04:31:11;34.60;;;17.13;;
23496;SDS011;11925;48.122;11.560;2023-03-03T04:33:41;32.35;;;17.63;;
23496;SDS011;11925;48.122;11.560;2023-03-03T04:36:09;32.97;;;18.05;;
23496;SDS011;11925;48.122;11.560;2023-03-03T04:38:38;33.72;;;17.73;;
23496;SDS011;11925;48.122;11.560;2023-03-03T04:41:06;34.55;;;17.92;;
23496;SDS011;11925;48.122;11.560;2023-03-03T04:43:37;32.05;;;17.58;;
23496;SDS011;11925;48.122;11.560;2023-03-03T04:46:05;34.55;;;17.90;;
23496;SDS011;11925;48.122;11.560;2023-03-03T04:48:36;32.70;;;16.97;;
23496;SDS011;11925;48.122;11.560;2023-03-03T04:51:06;35.90;;;17.75;;
23496;SDS011;11925;48.122;11.560;2023-03-03T04:53:35;32.22;;;18.02;;
23496;SDS011;11925;48.122;11.560;2023-03-03T04:56:06;32.08;;;17.05;;
23496;SDS011;11925;48.122;11.560;2023-03-03T04:58:35;34.30;;;18.38;;
23496;SDS011;11925;48.122;11.560;2023-03-03T05:01:03;33.67;;;18.63;;
23496;SDS011;11925;48.122;11.560;2023-03-03T05:03:33;35.50;;;18.52;;
23496;SDS011;11925;48.122;11.560;2023-03-03T05:06:02;35.75;;;17.85;;
23496;SDS011;11925;48.122;11.560;2023-03-03T05:08:34;33.10;;;17.75;;
23496;SDS011;11925;48.122;11.560;2023-03-03T05:11:05;32.97;;;17.42;;
23496;SDS011;11925;48.122;11.560;2023-03-03T05:13:33;34.50;;;19.02;;
23496;SDS011;11925;48.122;11.560;2023-03-03T05:16:02;33.85;;;18.08;;
23496;SDS011;11925;48.122;11.560;2023-03-03T05:18:31;35.72;;;18.23;;
23496;SDS011;11925;48.122;11.560;2023-03-03T05:20:59;34.08;;;18.77;;
23496;SDS011;11925;48.122;11.560;2023-03-03T05:23:27;36.08;;;18.60;;
23496;SDS011;11925;48.122;11.560;2023-03-03T05:25:58;34.88;;;18.73;;
23496;SDS011;11925;48.122;11.560;2023-03-03T05:28:26;34.25;;;18.05;;
23496;SDS011;11925;48.122;11.560;2023-03-03T05:30:54;36.58;;;19.48;;
23496;SDS011;11925;48.122;11.560;2023-03-03T05:33:23;31.35;;;18.17;;
23496;SDS011;11925;48.122;11.560;2023-03-03T05:35:52;33.70;;;17.77;;
23496;SDS011;11925;48.122;11.560;2023-03-03T05:38:21;35.92;;;17.80;;
23496;SDS011;11925;48.122;11.560;2023-03-03T05:40:49;34.17;;;17.90;;
23496;SDS011;11925;48.122;11.560;2023-03-03T05:43:19;35.40;;;19.65;;
23496;SDS011;11925;48.122;11.560;2023-03-03T05:45:52;40.67;;;20.88;;
23496;SDS011;11925;48.122;11.560;2023-03-03T05:48:21;38.22;;;21.08;;
23496;SDS011;11925;48.122;11.560;2023-03-03T05:50:49;41.30;;;22.98;;
23496;SDS011;11925;48.122;11.560;2023-03-03T05:53:18;41.65;;;21.92;;
23496;SDS011;11925;48.122;11.560;2023-03-03T05:55:46;44.08;;;21.83;;
23496;SDS011;11925;48.122;11.560;2023-03-03T05:58:14;45.35;;;23.08;;
23496;SDS011;11925;48.122;11.560;2023-03-03T06:00:44;47.67;;;24.15;;
23496;SDS011;11925;48.122;11.560;2023-03-03T06:03:12;45.80;;;23.20;;
23496;SDS011;11925;48.122;11.560;2023-03-03T06:05:42;43.33;;;22.60;;
23496;SDS011;11925;48.122;11.560;2023-03-03T06:08:10;47.33;;;24.98;;
23496;SDS011;11925;48.122;11.560;2023-03-03T06:10:38;47.42;;;24.17;;
23496;SDS011;11925;48.122;11.560;2023-03-03T06:13:09;44.53;;;23.40;;
23496;SDS011;11925;48.122;11.560;2023-03-03T06:15:37;44.35;;;22.75;;
23496;SDS011;11925;48.122;11.560;2023-03-03T06:18:07;45.42;;;23.63;;
23496;SDS011;11925;48.122;11.560;2023-03-03T06:20:36;46.13;;;24.05;;
23496;SDS011;11925;48.122;11.560;2023-03-03T06:23:05;50.20;;;24.60;;
23496;SDS011;11925;48.122;11.560;2023-03-03T06:25:33;52.25;;;24.42;;
23496;SDS011;11925;48.122;11.560;2023-03-03T06:28:01;50.80;;;24.73;;
23496;SDS011;11925;48.122;11.560;2023-03-03T06:30:30;45.28;;;23.80;;
23496;SDS011;11925;48.122;11.560;2023-03-03T06:32:58;60.60;;;28.90;;
23496;SDS011;11925;48.122;11.560;2023-03-03T06:35:28;109.50;;;40.38;;
23496;SDS011;11925;48.122;11.560;2023-03-03T06:37:56;99.47;;;39.78;;
23496;SDS011;11925;48.122;11.560;2023-03-03T06:40:24;104.43;;;38.53;;
23496;SDS011;11925;48.122;11.560;2023-03-03T06:42:53;112.15;;;42.10;;
23496;SDS011;11925;48.122;11.560;2023-03-03T06:45:21;114.80;;;41.58;;
23496;SDS011;11925;48.122;11.560;2023-03-03T06:47:50;117.30;;;43.35;;
23496;SDS011;11925;48.122;11.560;2023-03-03T06:50:19;97.32;;;37.28;;
23496;SDS011;11925;48.122;11.560;2023-03-03T06:52:49;78.97;;;34.58;;
23496;SDS011;11925;48.122;11.560;2023-03-03T06:55:28;71.85;;;30.45;;
23496;SDS011;11925;48.122;11.560;2023-03-03T06:57:56;62.88;;;29.05;;
23496;SDS011;11925;48.122;11.560;2023-03-03T07:00:26;61.83;;;27.30;;
23496;SDS011;11925;48.122;11.560;2023-03-03T07:02:57;62.47;;;28.33;;
23496;SDS011;11925;48.122;11.560;2023-03-03T07:05:27;56.05;;;27.40;;
23496;SDS011;11925;48.122;11.560;2023-03-03T07:07:57;58.13;;;27.10;;
23496;SDS011;11925;48.122;11.560;2023-03-03T07:10:26;57.85;;;27.20;;
23496;SDS011;11925;48.122;11.560;2023-03-03T07:12:57;52.58;;;26.55;;
23496;SDS011;11925;48.122;11.560;2023-03-03T07:15:37;52.67;;;25.95;;
23496;SDS011;11925;48.122;11.560;2023-03-03T07:18:06;53.33;;;27.58;;
23496;SDS011;11925;48.122;11.560;2023-03-03T07:20:43;56.90;;;26.58;;
23496;SDS011;11925;48.122;11.560;2023-03-03T07:23:17;58.90;;;27.60;;
23496;SDS011;11925;48.122;11.560;2023-03-03T07:25:49;55.55;;;26.92;;
23496;SDS011;11925;48.122;11.560;2023-03-03T07:28:19;51.03;;;26.38;;
23496;SDS011;11925;48.122;11.560;2023-03-03T07:30:50;55.67;;;26.27;;
23496;SDS011;11925;48.122;11.560;2023-03-03T07:33:22;53.25;;;26.05;;
23496;SDS011;11925;48.122;11.560;2023-03-03T07:35:54;54.95;;;27.48;;
23496;SDS011;11925;48.122;11.560;2023-03-03T07:38:28;57.85;;;27.73;;
23496;SDS011;11925;48.122;11.560;2023-03-03T07:41:01;50.38;;;26.55;;
23496;SDS011;11925;48.122;11.560;2023-03-03T07:43:35;54.25;;;27.08;;
23496;SDS011;11925;48.122;11.560;2023-03-03T07:49:07;52.25;;;26.73;;
23496;SDS011;11925;48.122;11.560;2023-03-03T07:51:52;52.38;;;25.73;;
23496;SDS011;11925;48.122;11.560;2023-03-03T07:54:28;51.15;;;26.95;;
23496;SDS011;11925;48.122;11.560;2023-03-03T07:57:01;55.17;;;27.23;;
23496;SDS011;11925;48.122;11.560;2023-03-03T07:59:44;53.55;;;27.27;;
23496;SDS011;11925;48.122;11.560;2023-03-03T08:02:26;54.10;;;26.40;;
23496;SDS011;11925;48.122;11.560;2023-03-03T08:08:14;57.80;;;27.90;;
23496;SDS011;11925;48.122;11.560;2023-03-03T08:10:57;55.00;;;27.83;;
23496;SDS011;11925;48.122;11.560;2023-03-03T08:13:27;54.63;;;28.50;;
23496;SDS011;11925;48.122;11.560;2023-03-03T08:16:20;54.78;;;27.38;;
23496;SDS011;11925;48.122;11.560;2023-03-03T08:18:57;53.22;;;27.00;;
23496;SDS011;11925;48.122;11.560;2023-03-03T08:21:30;53.00;;;26.55;;
23496;SDS011;11925;48.122;11.560;2023-03-03T08:23:59;53.90;;;27.35;;
23496;SDS011;11925;48.122;11.560;2023-03-03T08:26:29;54.42;;;27.58;;
23496;SDS011;11925;48.122;11.560;2023-03-03T08:28:57;53.00;;;26.95;;
23496;SDS011;11925;48.122;11.560;2023-03-03T08:31:26;51.13;;;27.33;;
23496;SDS011;11925;48.122;11.560;2023-03-03T08:34:06;56.45;;;27.92;;
23496;SDS011;11925;48.122;11.560;2023-03-03T08:36:34;56.28;;;27.35;;
23496;SDS011;11925;48.122;11.560;2023-03-03T08:39:03;59.63;;;28.90;;
23496;SDS011;11925;48.122;11.560;2023-03-03T08:41:33;52.83;;;27.52;;
23496;SDS011;11925;48.122;11.560;2023-03-03T08:44:01;53.58;;;28.77;;
23496;SDS011;11925;48.122;11.560;2023-03-03T08:46:29;55.80;;;27.77;;
23496;SDS011;11925;48.122;11.560;2023-03-03T08:48:58;57.10;;;27.55;;
23496;SDS011;11925;48.122;11.560;2023-03-03T08:51:28;57.97;;;28.35;;
23496;SDS011;11925;48.122;11.560;2023-03-03T08:53:59;54.63;;;28.17;;
23496;SDS011;11925;48.122;11.560;2023-03-03T08:56:28;57.88;;;29.17;;
23496;SDS011;11925;48.122;11.560;2023-03-03T08:59:05;55.85;;;28.02;;
23496;SDS011;11925;48.122;11.560;2023-03-03T09:01:33;59.42;;;28.95;;
23496;SDS011;11925;48.122;11.560;2023-03-03T09:04:01;52.13;;;26.40;;
23496;SDS011;11925;48.122;11.560;2023-03-03T09:06:30;55.85;;;28.17;;
23496;SDS011;11925;48.122;11.560;2023-03-03T09:08:58;57.60;;;27.70;;
23496;SDS011;11925;48.122;11.560;2023-03-03T09:11:27;54.55;;;27.50;;
23496;SDS011;11925;48.122;11.560;2023-03-03T09:13:58;55.17;;;27.73;;
23496;SDS011;11925;48.122;11.560;2023-03-03T09:16:36;52.15;;;28.27;;
23496;SDS011;11925;48.122;11.560;2023-03-03T09:19:14;52.88;;;27.30;;
23496;SDS011;11925;48.122;11.560;2023-03-03T09:21:46;55.13;;;27.90;;
23496;SDS011;11925;48.122;11.560;2023-03-03T09:24:17;60.72;;;30.05;;
23496;SDS011;11925;48.122;11.560;2023-03-03T09:26:52;53.72;;;28.42;;
23496;SDS011;11925;48.122;11.560;2023-03-03T09:29:24;55.95;;;28.00;;
23496;SDS011;11925;48.122;11.560;2023-03-03T09:31:56;58.78;;;28.17;;
23496;SDS011;11925;48.122;11.560;2023-03-03T09:34:32;50.92;;;28.15;;
23496;SDS011;11925;48.122;11.560;2023-03-03T09:37:14;62.38;;;31.25;;
23496;SDS011;11925;48.122;11.560;2023-03-03T09:39:49;54.58;;;28.20;;
23496;SDS011;11925;48.122;11.560;2023-03-03T09:42:36;57.50;;;28.65;;
23496;SDS011;11925;48.122;11.560;2023-03-03T09:45:31;57.33;;;28.75;;
23496;SDS011;11925;48.122;11.560;2023-03-03T09:51:17;55.80;;;27.85;;
23496;SDS011;11925;48.122;11.560;2023-03-03T09:54:11;54.72;;;29.33;;
23496;SDS011;11925;48.122;11.560;2023-03-03T09:56:48;57.75;;;28.90;;
23496;SDS011;11925;48.122;11.560;2023-03-03T09:59:25;53.92;;;28.58;;
23496;SDS011;11925;48.122;11.560;2023-03-03T10:02:07;59.95;;;29.25;;
23496;SDS011;11925;48.122;11.560;2023-03-03T10:04:55;58.97;;;28.92;;
23496;SDS011;11925;48.122;11.560;2023-03-03T10:07:55;56.95;;;28.98;;
23496;SDS011;11925;48.122;11.560;2023-03-03T10:10:47;57.28;;;28.38;;
23496;SDS011;11925;48.122;11.560;2023-03-03T10:13:25;53.65;;;29.27;;
23496;SDS011;11925;48.122;11.560;2023-03-03T10:19:23;60.05;;;30.08;;
23496;SDS011;11925;48.122;11.560;2023-03-03T10:22:05;57.22;;;29.60;;
23496;SDS011;11925;48.122;11.560;2023-03-03T10:24:49;54.90;;;28.45;;
23496;SDS011;11925;48.122;11.560;2023-03-03T10:27:39;49.17;;;28.38;;
23496;SDS011;11925;48.122;11.560;2023-03-03T10:30:20;56.70;;;27.98;;
23496;SDS011;11925;48.122;11.560;2023-03-03T10:33:10;57.35;;;29.85;;
23496;SDS011;11925;48.122;11.560;2023-03-03T10:38:53;55.83;;;28.85;;
23496;SDS011;11925;48.122;11.560;2023-03-03T10:41:42;56.05;;;29.40;;
23496;SDS011;11925;48.122;11.560;2023-03-03T10:47:23;53.60;;;29.08;;
23496;SDS011;11925;48.122;11.560;2023-03-03T10:50:03;55.28;;;29.17;;
23496;SDS011;11925;48.122;11.560;2023-03-03T10:52:42;55.25;;;27.92;;
23496;SDS011;11925;48.122;11.560;2023-03-03T10:55:18;54.38;;;29.65;;
23496;SDS011;11925;48.122;11.560;2023-03-03T10:57:58;58.55;;;29.65;;
23496;SDS011;11925;48.122;11.560;2023-03-03T11:00:41;54.10;;;29.10;;
23496;SDS011;11925;48.122;11.560;2023-03-03T11:06:15;59.67;;;28.83;;
23496;SDS011;11925;48.122;11.560;2023-03-03T11:08:50;53.42;;;28.83;;
23496;SDS011;11925;48.122;11.560;2023-03-03T11:16:44;58.10;;;29.13;;
23496;SDS011;11925;48.122;11.560;2023-03-03T11:19:34;56.35;;;29.63;;
23496;SDS011;11925;48.122;11.560;2023-03-03T11:22:15;57.53;;;28.67;;
23496;SDS011;11925;48.122;11.560;2023-03-03T11:25:07;57.28;;;30.67;;
23496;SDS011;11925;48.122;11.560;2023-03-03T11:27:56;59.72;;;29.50;;
23496;SDS011;11925;48.122;11.560;2023-03-03T11:30:39;56.08;;;29.33;;
23496;SDS011;11925;48.122;11.560;2023-03-03T11:33:18;59.20;;;28.85;;
23496;SDS011;11925;48.122;11.560;2023-03-03T11:35:50;59.05;;;30.23;;
23496;SDS011;11925;48.122;11.560;2023-03-03T11:38:31;56.05;;;29.17;;
23496;SDS011;11925;48.122;11.560;2023-03-03T11:41:10;61.40;;;30.42;;
23496;SDS011;11925;48.122;11.560;2023-03-03T11:43:52;61.20;;;30.98;;
23496;SDS011;11925;48.122;11.560;2023-03-03T11:46:24;53.85;;;30.17;;
23496;SDS011;11925;48.122;11.560;2023-03-03T11:48:57;63.78;;;31.63;;
23496;SDS011;11925;48.122;11.560;2023-03-03T11:51:32;56.72;;;30.75;;
23496;SDS011;11925;48.122;11.560;2023-03-03T11:54:14;52.22;;;28.65;;
23496;SDS011;11925;48.122;11.560;2023-03-03T11:56:46;52.88;;;28.92;;
23496;SDS011;11925;48.122;11.560;2023-03-03T12:02:29;66.07;;;29.98;;
23496;SDS011;11925;48.122;11.560;2023-03-03T12:05:21;57.42;;;29.90;;
23496;SDS011;11925;48.122;11.560;2023-03-03T12:08:02;63.22;;;33.30;;
23496;SDS011;11925;48.122;11.560;2023-03-03T12:10:35;56.00;;;31.48;;
23496;SDS011;11925;48.122;11.560;2023-03-03T12:13:11;58.55;;;29.85;;
23496;SDS011;11925;48.122;11.560;2023-03-03T12:15:50;55.78;;;29.75;;
23496;SDS011;11925;48.122;11.560;2023-03-03T12:18:32;54.78;;;31.15;;
23496;SDS011;11925;48.122;11.560;2023-03-03T12:21:17;59.10;;;30.75;;
23496;SDS011;11925;48.122;11.560;2023-03-03T12:26:51;56.22;;;29.65;;
23496;SDS011;11925;48.122;11.560;2023-03-03T12:29:30;59.85;;;29.98;;
23496;SDS011;11925;48.122;11.560;2023-03-03T12:32:09;57.25;;;30.27;;
23496;SDS011;11925;48.122;11.560;2023-03-03T12:34:52;55.92;;;29.13;;
23496;SDS011;11925;48.122;11.560;2023-03-03T12:37:34;59.22;;;30.77;;
23496;SDS011;11925;48.122;11.560;2023-03-03T12:40:15;53.38;;;29.42;;
23496;SDS011;11925;48.122;11.560;2023-03-03T12:42:56;56.95;;;30.80;;
23496;SDS011;11925;48.122;11.560;2023-03-03T12:45:36;56.08;;;30.45;;
23496;SDS011;11925;48.122;11.560;2023-03-03T12:48:14;57.40;;;28.67;;
23496;SDS011;11925;48.122;11.560;2023-03-03T12:50:52;58.15;;;29.77;;
23496;SDS011;11925;48.122;11.560;2023-03-03T12:53:30;55.78;;;29.38;;
23496;SDS011;11925;48.122;11.560;2023-03-03T12:56:07;61.90;;;30.25;;
23496;SDS011;11925;48.122;11.560;2023-03-03T12:58:39;58.55;;;30.60;;
23496;SDS011;11925;48.122;11.560;2023-03-03T13:01:21;58.15;;;30.13;;
23496;SDS011;11925;48.122;11.560;2023-03-03T13:04:02;61.17;;;30.38;;
23496;SDS011;11925;48.122;11.560;2023-03-03T13:06:37;56.45;;;30.10;;
23496;SDS011;11925;48.122;11.560;2023-03-03T13:09:14;57.65;;;31.67;;
23496;SDS011;11925;48.122;11.560;2023-03-03T13:11:54;58.53;;;30.50;;
23496;SDS011;11925;48.122;11.560;2023-03-03T13:14:34;58.65;;;31.60;;
23496;SDS011;11925;48.122;11.560;2023-03-03T13:17:14;56.55;;;30.83;;
23496;SDS011;11925;48.122;11.560;2023-03-03T13:19:50;54.78;;;30.85;;
23496;SDS011;11925;48.122;11.560;2023-03-03T13:22:29;52.45;;;28.77;;
23496;SDS011;11925;48.122;11.560;2023-03-03T13:25:05;58.78;;;30.20;;
23496;SDS011;11925;48.122;11.560;2023-03-03T13:27:47;63.70;;;31.20;;
23496;SDS011;11925;48.122;11.560;2023-03-03T13:30:21;55.33;;;29.05;;
23496;SDS011;11925;48.122;11.560;2023-03-03T13:32:53;53.55;;;29.45;;
23496;SDS011;11925;48.122;11.560;2023-03-03T13:35:29;53.70;;;28.95;;
23496;SDS011;11925;48.122;11.560;2023-03-03T13:38:08;54.38;;;29.90;;
23496;SDS011;11925;48.122;11.560;2023-03-03T13:40:40;54.78;;;28.85;;
23496;SDS011;11925;48.122;11.560;2023-03-03T13:43:13;55.67;;;29.55;;
23496;SDS011;11925;48.122;11.560;2023-03-03T13:45:49;56.45;;;30.13;;
23496;SDS011;11925;48.122;11.560;2023-03-03T13:48:27;57.35;;;29.55;;
23496;SDS011;11925;48.122;11.560;2023-03-03T13:51:13;53.38;;;29.52;;
23496;SDS011;11925;48.122;11.560;2023-03-03T13:53:52;57.03;;;30.00;;
23496;SDS011;11925;48.122;11.560;2023-03-03T13:56:31;56.22;;;30.17;;
23496;SDS011;11925;48.122;11.560;2023-03-03T13:59:11;54.15;;;29.80;;
23496;SDS011;11925;48.122;11.560;2023-03-03T14:01:51;53.78;;;29.77;;
23496;SDS011;11925;48.122;11.560;2023-03-03T14:04:29;52.22;;;29.45;;
23496;SDS011;11925;48.122;11.560;2023-03-03T14:07:06;56.47;;;29.35;;
23496;SDS011;11925;48.122;11.560;2023-03-03T14:09:46;52.53;;;28.48;;
23496;SDS011;11925;48.122;11.560;2023-03-03T14:12:25;56.55;;;29.48;;
23496;SDS011;11925;48.122;11.560;2023-03-03T14:15:06;58.58;;;29.65;;
23496;SDS011;11925;48.122;11.560;2023-03-03T14:17:51;56.67;;;30.00;;
23496;SDS011;11925;48.122;11.560;2023-03-03T14:20:28;57.38;;;29.40;;
23496;SDS011;11925;48.122;11.560;2023-03-03T14:22:58;53.53;;;28.33;;
23496;SDS011;11925;48.122;11.560;2023-03-03T14:25:48;53.85;;;30.08;;
23496;SDS011;11925;48.122;11.560;2023-03-03T14:28:19;56.25;;;29.55;;
23496;SDS011;11925;48.122;11.560;2023-03-03T14:30:49;53.55;;;29.20;;
23496;SDS011;11925;48.122;11.560;2023-03-03T14:33:28;53.30;;;28.58;;
23496;SDS011;11925;48.122;11.560;2023-03-03T14:36:05;57.40;;;29.90;;
23496;SDS011;11925;48.122;11.560;2023-03-03T14:38:40;50.85;;;29.23;;
23496;SDS011;11925;48.122;11.560;2023-03-03T14:41:19;57.53;;;29.73;;
23496;SDS011;11925;48.122;11.560;2023-03-03T14:43:56;62.55;;;28.60;;
23496;SDS011;11925;48.122;11.560;2023-03-03T14:46:36;52.42;;;27.80;;
23496;SDS011;11925;48.122;11.560;2023-03-03T14:49:12;54.90;;;28.75;;
23496;SDS011;11925;48.122;11.560;2023-03-03T14:51:43;53.35;;;28.35;;
23496;SDS011;11925;48.122;11.560;2023-03-03T14:54:15;50.60;;;28.45;;
23496;SDS011;11925;48.122;11.560;2023-03-03T14:57:05;51.55;;;27.50;;
23496;SDS011;11925;48.122;11.560;2023-03-03T14:59:38;54.47;;;27.30;;
23496;SDS011;11925;48.122;11.560;2023-03-03T15:02:19;52.63;;;28.67;;
23496;SDS011;11925;48.122;11.560;2023-03-03T15:05:12;52.33;;;28.60;;
23496;SDS011;11925;48.122;11.560;2023-03-03T15:07:49;48.47;;;27.25;;
23496;SDS011;11925;48.122;11.560;2023-03-03T15:10:30;56.40;;;29.42;;
23496;SDS011;11925;48.122;11.560;2023-03-03T15:16:03;51.70;;;27.50;;
23496;SDS011;11925;48.122;11.560;2023-03-03T15:18:49;52.47;;;27.65;;
23496;SDS011;11925;48.122;11.560;2023-03-03T15:21:33;48.45;;;28.00;;
23496;SDS011;11925;48.122;11.560;2023-03-03T15:24:09;48.95;;;27.27;;
23496;SDS011;11925;48.122;11.560;2023-03-03T15:26:46;50.40;;;28.17;;
23496;SDS011;11925;48.122;11.560;2023-03-03T15:29:22;49.67;;;26.45;;
23496;SDS011;11925;48.122;11.560;2023-03-03T15:31:56;47.72;;;26.42;;
23496;SDS011;11925;48.122;11.560;2023-03-03T15:34:32;51.53;;;27.88;;